createdAt,value
2022-11-23T00:00:27.417Z,5.70
2022-11-23T00:03:16.966Z,5.32
2022-11-23T00:05:44.555Z,6.05
2022-11-23T00:08:13.053Z,5.35
2022-11-23T00:10:41.647Z,6.20
2022-11-23T00:13:10.635Z,7.18
2022-11-23T00:15:42.246Z,7.75
2022-11-23T00:18:12.094Z,6.53
2022-11-23T00:20:41.439Z,6.95
2022-11-23T00:23:09.475Z,6.80
2022-11-23T00:25:38.304Z,7.65
2022-11-23T00:28:05.622Z,8.05
2022-11-23T00:30:33.482Z,6.00
2022-11-23T00:33:02.643Z,8.40
2022-11-23T00:35:37.431Z,7.85
2022-11-23T00:38:06.197Z,11.38
2022-11-23T00:40:33.922Z,7.88
2022-11-23T00:43:01.696Z,8.00
2022-11-23T00:45:29.968Z,7.18
2022-11-23T00:47:57.307Z,5.38
2022-11-23T00:50:26.323Z,5.18
2022-11-23T00:52:56.644Z,6.47
2022-11-23T00:55:24.973Z,6.60
2022-11-23T00:57:55.056Z,6.68
2022-11-23T01:00:22.975Z,9.77
2022-11-23T01:02:50.760Z,6.32
2022-11-23T01:05:25.331Z,6.90
2022-11-23T01:07:54.840Z,8.45
2022-11-23T01:10:30.338Z,7.30
2022-11-23T01:12:58.058Z,7.20
2022-11-23T01:15:29.167Z,8.05
2022-11-23T01:17:57.768Z,7.38
2022-11-23T01:20:27.746Z,6.10
2022-11-23T01:22:55.399Z,6.90
2022-11-23T01:25:22.964Z,6.43
2022-11-23T01:27:50.136Z,6.43
2022-11-23T01:30:17.811Z,8.07
2022-11-23T01:32:45.054Z,7.00
2022-11-23T01:35:12.842Z,7.72
2022-11-23T01:37:43.145Z,7.28
2022-11-23T01:40:11.669Z,8.82
2022-11-23T01:42:59.423Z,8.73
2022-11-23T01:45:34.952Z,6.82
2022-11-23T01:48:06.000Z,9.00
2022-11-23T01:50:34.120Z,7.90
2022-11-23T01:53:01.602Z,8.45
2022-11-23T01:55:29.172Z,7.60
2022-11-23T01:57:56.611Z,7.85
2022-11-23T02:00:24.214Z,8.00
2022-11-23T02:02:57.020Z,7.47
2022-11-23T02:05:37.242Z,7.72
2022-11-23T02:08:07.954Z,6.53
2022-11-23T02:10:37.992Z,7.40
2022-11-23T02:13:12.818Z,7.78
2022-11-23T02:15:41.360Z,7.20
2022-11-23T02:18:28.585Z,7.03
2022-11-23T02:20:58.513Z,7.20
2022-11-23T02:23:45.639Z,6.88
2022-11-23T02:26:36.319Z,7.88
2022-11-23T02:29:17.975Z,12.77
2022-11-23T02:31:46.671Z,8.98
2022-11-23T02:34:18.510Z,9.40
2022-11-23T02:36:52.072Z,8.05
2022-11-23T02:39:37.651Z,9.77
2022-11-23T02:42:06.424Z,8.50
2022-11-23T02:44:49.073Z,9.18
2022-11-23T02:47:17.343Z,7.85
2022-11-23T02:49:49.536Z,8.55
2022-11-23T02:52:18.601Z,9.23
2022-11-23T02:54:46.540Z,10.10
2022-11-23T02:57:14.867Z,10.85
2022-11-23T02:59:46.022Z,8.32
2022-11-23T03:02:14.051Z,10.57
2022-11-23T03:04:41.519Z,9.82
2022-11-23T03:07:09.217Z,10.07
2022-11-23T03:09:36.481Z,9.50
2022-11-23T03:12:04.264Z,8.18
2022-11-23T03:14:33.858Z,8.60
2022-11-23T03:17:02.470Z,9.57
2022-11-23T03:19:35.358Z,8.10
2022-11-23T03:22:05.629Z,8.65
2022-11-23T03:24:33.099Z,8.07
2022-11-23T03:27:04.183Z,9.57
2022-11-23T03:29:31.707Z,7.63
2022-11-23T03:32:03.141Z,8.30
2022-11-23T03:34:30.769Z,7.80
2022-11-23T03:36:59.564Z,8.93
2022-11-23T03:39:27.975Z,9.07
2022-11-23T03:42:14.275Z,8.70
2022-11-23T03:44:43.090Z,9.20
2022-11-23T03:47:11.211Z,9.23
2022-11-23T03:49:39.592Z,7.97
2022-11-23T03:52:09.199Z,11.95
2022-11-23T03:54:40.149Z,7.93
2022-11-23T03:57:11.757Z,9.23
2022-11-23T03:59:39.502Z,7.95
2022-11-23T04:02:08.468Z,10.90
2022-11-23T04:04:46.376Z,8.60
2022-11-23T04:07:33.545Z,9.30
2022-11-23T04:10:05.215Z,8.27
2022-11-23T04:12:53.180Z,10.10
2022-11-23T04:15:25.859Z,9.52
2022-11-23T04:17:56.363Z,9.27
2022-11-23T04:20:27.155Z,11.30
2022-11-23T04:22:54.907Z,8.40
2022-11-23T04:25:24.887Z,9.05
2022-11-23T04:27:55.071Z,9.45
2022-11-23T04:30:27.824Z,9.70
2022-11-23T04:32:57.943Z,10.48
2022-11-23T04:35:28.148Z,11.18
2022-11-23T04:37:57.601Z,9.10
2022-11-23T04:40:32.896Z,10.82
2022-11-23T04:45:40.652Z,11.07
2022-11-23T04:48:19.937Z,10.60
2022-11-23T04:50:54.293Z,10.80
2022-11-23T04:53:29.265Z,10.82
2022-11-23T04:56:01.505Z,11.68
2022-11-23T04:58:36.492Z,10.27
2022-11-23T05:01:08.880Z,11.45
2022-11-23T05:03:45.824Z,9.98
2022-11-23T05:06:13.476Z,10.95
2022-11-23T05:08:43.158Z,11.07
2022-11-23T05:11:35.120Z,10.77
2022-11-23T05:14:03.291Z,14.05
2022-11-23T05:16:31.755Z,10.60
2022-11-23T05:19:04.911Z,10.70
2022-11-23T05:21:34.973Z,11.27
2022-11-23T05:24:03.903Z,11.60
2022-11-23T05:26:33.661Z,12.48
2022-11-23T05:29:03.348Z,12.68
2022-11-23T05:31:32.026Z,12.18
2022-11-23T05:33:59.398Z,11.93
2022-11-23T05:36:42.222Z,11.70
2022-11-23T05:39:14.349Z,11.77
2022-11-23T05:41:45.776Z,12.13
2022-11-23T05:44:30.927Z,12.85
2022-11-23T05:50:01.113Z,12.32
2022-11-23T05:52:31.424Z,11.52
2022-11-23T05:55:00.084Z,12.63
2022-11-23T05:57:29.833Z,12.70
2022-11-23T05:59:58.601Z,13.20
2022-11-23T06:02:41.400Z,13.27
2022-11-23T06:05:13.115Z,13.80
2022-11-23T06:07:53.969Z,14.63
2022-11-23T06:10:27.820Z,12.90
2022-11-23T06:13:03.178Z,13.57
2022-11-23T06:15:33.248Z,14.50
2022-11-23T06:18:04.366Z,13.02
2022-11-23T06:20:47.919Z,13.80
2022-11-23T06:23:16.664Z,13.35
2022-11-23T06:25:45.171Z,12.13
2022-11-23T06:28:23.146Z,12.80
2022-11-23T06:30:52.093Z,12.45
2022-11-23T06:33:21.442Z,12.60
2022-11-23T06:35:59.524Z,11.90
2022-11-23T06:38:37.987Z,13.02
2022-11-23T06:41:14.434Z,12.40
2022-11-23T06:43:42.219Z,14.05
2022-11-23T06:46:11.630Z,11.95
2022-11-23T06:48:44.770Z,12.90
2022-11-23T06:51:15.097Z,16.02
2022-11-23T06:53:47.867Z,14.40
2022-11-23T06:56:20.091Z,13.27
2022-11-23T06:58:48.575Z,14.25
2022-11-23T07:01:21.322Z,13.63
2022-11-23T07:03:55.742Z,12.85
2022-11-23T07:06:29.487Z,13.93
2022-11-23T07:09:00.674Z,12.80
2022-11-23T07:11:46.971Z,12.30
2022-11-23T07:14:17.520Z,12.48
2022-11-23T07:16:47.880Z,23.88
2022-11-23T07:19:17.127Z,30.05
2022-11-23T07:21:47.393Z,20.25
2022-11-23T07:24:18.541Z,26.05
2022-11-23T07:26:49.181Z,71.07
2022-11-23T07:29:16.850Z,26.92
2022-11-23T07:31:44.032Z,71.25
2022-11-23T07:34:14.939Z,58.50
2022-11-23T07:36:46.297Z,37.47
2022-11-23T07:39:18.146Z,70.43
2022-11-23T07:41:51.441Z,38.58
2022-11-23T07:44:23.472Z,22.58
2022-11-23T07:46:53.832Z,14.73
2022-11-23T07:49:22.583Z,36.63
2022-11-23T07:51:54.634Z,25.95
2022-11-23T07:54:26.576Z,22.20
2022-11-23T07:56:53.769Z,17.50
2022-11-23T07:59:21.288Z,16.85
2022-11-23T08:01:52.055Z,20.05
2022-11-23T08:04:28.747Z,24.90
2022-11-23T08:06:56.153Z,22.35
2022-11-23T08:09:23.893Z,24.08
2022-11-23T08:11:51.098Z,17.27
2022-11-23T08:14:20.568Z,16.13
2022-11-23T08:16:52.380Z,28.30
2022-11-23T08:19:20.035Z,42.30
2022-11-23T08:21:47.322Z,37.70
2022-11-23T08:24:14.882Z,30.58
2022-11-23T08:26:42.139Z,42.88
2022-11-23T08:29:09.784Z,52.08
2022-11-23T08:31:37.056Z,21.75
2022-11-23T08:34:04.676Z,21.73
2022-11-23T08:36:32.045Z,50.95
2022-11-23T08:39:00.237Z,47.53
2022-11-23T08:41:27.934Z,30.88
2022-11-23T08:43:55.748Z,25.23
2022-11-23T08:46:23.031Z,23.55
2022-11-23T08:48:51.501Z,32.47
2022-11-23T08:51:22.799Z,27.10
2022-11-23T08:54:08.851Z,28.88
2022-11-23T08:56:36.429Z,23.75
2022-11-23T08:59:03.934Z,62.58
2022-11-23T09:01:32.259Z,19.38
2022-11-23T09:03:59.868Z,20.05
2022-11-23T09:06:29.296Z,17.80
2022-11-23T09:08:57.174Z,16.65
2022-11-23T09:11:26.462Z,15.93
2022-11-23T09:13:54.216Z,18.42
2022-11-23T09:16:21.816Z,22.08
2022-11-23T09:18:50.222Z,21.23
2022-11-23T09:21:17.668Z,14.35
2022-11-23T09:23:45.493Z,15.15
2022-11-23T09:26:12.886Z,19.75
2022-11-23T09:28:44.739Z,13.88
2022-11-23T09:31:13.592Z,15.57
2022-11-23T09:33:41.182Z,12.93
2022-11-23T09:36:08.674Z,14.80
2022-11-23T09:38:56.829Z,14.43
2022-11-23T09:41:56.914Z,15.05
2022-11-23T09:44:27.402Z,20.60
2022-11-23T09:47:13.896Z,10.90
2022-11-23T09:50:03.306Z,9.88
2022-11-23T09:52:31.723Z,18.40
2022-11-23T09:55:11.417Z,9.27
2022-11-23T09:57:42.521Z,8.90
2022-11-23T10:00:20.473Z,8.52
2022-11-23T10:02:48.192Z,7.03
2022-11-23T10:05:23.535Z,7.68
2022-11-23T10:08:15.814Z,9.65
2022-11-23T10:10:58.168Z,10.55
2022-11-23T10:13:40.305Z,11.15
2022-11-23T10:16:52.882Z,10.93
2022-11-23T10:19:35.346Z,12.95
2022-11-23T10:22:20.533Z,17.55
2022-11-23T10:27:21.757Z,20.55
2022-11-23T10:29:52.494Z,18.63
2022-11-23T10:32:48.023Z,18.23
2022-11-23T10:35:18.303Z,17.88
2022-11-23T10:37:45.969Z,19.88
2022-11-23T10:40:22.149Z,18.48
2022-11-23T10:43:16.913Z,20.08
2022-11-23T10:45:44.294Z,20.80
2022-11-23T10:48:13.119Z,20.85
2022-11-23T10:50:44.946Z,20.67
2022-11-23T10:53:20.200Z,23.48
2022-11-23T10:55:54.022Z,21.58
2022-11-23T10:58:31.486Z,22.83
2022-11-23T11:01:04.795Z,25.25
2022-11-23T11:03:34.856Z,25.08
2022-11-23T11:06:11.098Z,21.75
2022-11-23T11:08:52.716Z,22.73
2022-11-23T11:11:30.694Z,24.33
2022-11-23T11:14:02.850Z,22.98
2022-11-23T11:16:38.934Z,24.58
2022-11-23T11:19:28.497Z,26.15
2022-11-23T11:21:57.495Z,26.77
2022-11-23T11:24:44.729Z,26.92
2022-11-23T11:27:27.138Z,27.27
2022-11-23T11:30:20.558Z,25.80
2022-11-23T11:33:14.983Z,24.08
2022-11-23T11:35:47.427Z,24.10
2022-11-23T11:38:20.887Z,23.92
2022-11-23T11:40:51.337Z,25.47
2022-11-23T11:43:32.384Z,22.67
2022-11-23T11:46:31.647Z,21.85
2022-11-23T11:49:15.709Z,21.38
2022-11-23T11:51:52.343Z,21.38
2022-11-23T11:54:47.334Z,22.05
2022-11-23T11:58:02.655Z,21.70
2022-11-23T12:00:34.611Z,21.83
2022-11-23T12:03:19.817Z,22.63
2022-11-23T12:05:52.996Z,29.17
2022-11-23T12:08:36.005Z,31.48
2022-11-23T12:11:05.896Z,22.30
2022-11-23T12:13:38.809Z,19.80
2022-11-23T12:16:21.590Z,21.02
2022-11-23T12:19:03.859Z,20.77
2022-11-23T12:21:44.027Z,19.50
2022-11-23T12:24:25.360Z,23.55
2022-11-23T12:27:24.107Z,17.55
2022-11-23T12:30:30.047Z,19.08
2022-11-23T12:33:30.631Z,15.02
2022-11-23T12:36:39.091Z,15.48
2022-11-23T12:39:24.882Z,15.70
2022-11-23T12:42:40.315Z,17.00
2022-11-23T12:45:38.635Z,17.15
2022-11-23T12:48:11.755Z,17.30
2022-11-23T12:50:48.226Z,18.60
2022-11-23T12:53:41.943Z,19.88
2022-11-23T12:56:30.922Z,16.80
2022-11-23T12:58:59.549Z,13.15
2022-11-23T13:01:42.801Z,12.25
2022-11-23T13:04:13.057Z,11.70
2022-11-23T13:07:29.490Z,14.05
2022-11-23T13:10:10.906Z,12.50
2022-11-23T13:12:59.662Z,11.48
2022-11-23T13:15:51.252Z,15.32
2022-11-23T13:21:48.752Z,10.38
2022-11-23T13:25:00.254Z,8.27
2022-11-23T13:27:31.751Z,7.03
2022-11-23T13:30:27.363Z,6.25
2022-11-23T13:33:09.795Z,7.97
2022-11-23T13:35:46.252Z,8.95
2022-11-23T13:38:16.494Z,8.35
2022-11-23T13:40:46.238Z,8.48
2022-11-23T13:43:21.504Z,7.57
2022-11-23T13:46:23.718Z,8.50
2022-11-23T13:48:59.932Z,8.80
2022-11-23T13:51:33.787Z,7.85
2022-11-23T13:54:19.079Z,8.25
2022-11-23T13:56:56.381Z,8.73
2022-11-23T13:59:33.581Z,10.15
2022-11-23T14:02:07.469Z,6.53
2022-11-23T14:04:42.682Z,9.63
2022-11-23T14:07:19.565Z,9.60
2022-11-23T14:09:57.457Z,8.02
2022-11-23T14:12:45.314Z,7.82
2022-11-23T14:15:16.112Z,7.82
2022-11-23T14:18:05.440Z,8.35
2022-11-23T14:20:55.067Z,7.82
2022-11-23T14:24:00.614Z,10.27
2022-11-23T14:26:49.418Z,7.17
2022-11-23T14:29:26.658Z,7.57
2022-11-23T14:32:09.156Z,8.40
2022-11-23T14:35:04.910Z,7.65
2022-11-23T14:38:02.869Z,8.45
2022-11-23T14:41:08.481Z,7.70
2022-11-23T14:43:40.304Z,7.30
2022-11-23T14:46:20.605Z,8.70
2022-11-23T14:48:50.283Z,8.90
2022-11-23T14:51:28.251Z,8.38
2022-11-23T14:54:01.575Z,8.90
2022-11-23T14:56:34.204Z,7.57
2022-11-23T14:59:09.858Z,7.97
2022-11-23T15:01:38.227Z,9.88
2022-11-23T15:04:24.027Z,10.52
2022-11-23T15:06:56.633Z,8.95
2022-11-23T15:09:49.959Z,8.15
2022-11-23T15:12:27.043Z,7.85
2022-11-23T15:14:57.811Z,7.47
2022-11-23T15:17:25.760Z,8.93
2022-11-23T15:19:54.334Z,10.23
2022-11-23T15:22:24.775Z,7.47
2022-11-23T15:24:52.419Z,9.02
2022-11-23T15:27:30.057Z,7.45
2022-11-23T15:29:59.706Z,7.20
2022-11-23T15:32:34.646Z,8.32
2022-11-23T15:35:07.523Z,9.50
2022-11-23T15:37:45.767Z,9.40
2022-11-23T15:40:19.756Z,9.90
2022-11-23T15:42:51.108Z,13.68
2022-11-23T15:45:35.729Z,13.07
2022-11-23T15:50:34.180Z,11.30
2022-11-23T15:53:02.594Z,11.90
2022-11-23T15:55:30.757Z,9.73
2022-11-23T15:57:59.983Z,10.10
2022-11-23T16:00:27.800Z,10.13
2022-11-23T16:03:42.647Z,10.07
2022-11-23T16:06:12.970Z,12.25
2022-11-23T16:08:59.193Z,12.60
2022-11-23T16:11:35.693Z,15.07
2022-11-23T16:14:19.670Z,11.10
2022-11-23T16:16:58.529Z,8.65
2022-11-23T16:19:31.278Z,9.75
2022-11-23T16:22:05.772Z,9.43
2022-11-23T16:27:13.019Z,9.80
2022-11-23T16:29:41.301Z,13.20
2022-11-23T16:32:29.511Z,16.63
2022-11-23T16:35:18.205Z,7.70
2022-11-23T16:37:45.689Z,9.45
2022-11-23T16:40:14.585Z,8.65
2022-11-23T16:42:42.266Z,7.22
2022-11-23T16:45:12.421Z,7.70
2022-11-23T16:47:55.131Z,8.98
2022-11-23T16:50:24.069Z,8.57
2022-11-23T16:52:51.799Z,10.10
2022-11-23T16:55:19.707Z,10.77
2022-11-23T16:57:48.096Z,15.73
2022-11-23T17:00:24.335Z,8.75
2022-11-23T17:02:52.041Z,9.95
2022-11-23T17:05:23.920Z,12.32
2022-11-23T17:07:51.261Z,10.20
2022-11-23T17:10:18.823Z,11.13
2022-11-23T17:12:55.291Z,7.75
2022-11-23T17:15:24.470Z,7.32
2022-11-23T17:17:53.320Z,7.15
2022-11-23T17:20:24.805Z,7.07
2022-11-23T17:22:52.261Z,10.50
2022-11-23T17:25:19.836Z,13.82
2022-11-23T17:27:47.292Z,9.05
2022-11-23T17:30:20.970Z,8.40
2022-11-23T17:32:49.759Z,8.82
2022-11-23T17:35:17.763Z,12.20
2022-11-23T17:37:46.399Z,12.48
2022-11-23T17:40:22.312Z,11.35
2022-11-23T17:42:51.042Z,10.55
2022-11-23T17:45:19.186Z,9.80
2022-11-23T17:47:47.456Z,9.88
2022-11-23T17:50:21.726Z,9.52
2022-11-23T17:52:58.405Z,9.80
2022-11-23T17:55:26.053Z,11.38
2022-11-23T17:57:56.317Z,12.50
2022-11-23T18:00:32.328Z,10.18
2022-11-23T18:03:02.205Z,10.02
2022-11-23T18:05:30.931Z,10.35
2022-11-23T18:07:58.966Z,12.02
2022-11-23T18:10:29.987Z,9.68
2022-11-23T18:12:57.965Z,11.13
2022-11-23T18:15:26.983Z,9.38
2022-11-23T18:18:00.252Z,8.82
2022-11-23T18:20:32.919Z,8.98
2022-11-23T18:23:00.703Z,9.40
2022-11-23T18:25:28.658Z,7.25
2022-11-23T18:28:00.147Z,12.70
2022-11-23T18:30:31.741Z,9.68
2022-11-23T18:33:01.685Z,9.80
2022-11-23T18:35:29.746Z,10.98
2022-11-23T18:37:57.932Z,14.13
2022-11-23T18:40:26.508Z,11.60
2022-11-23T18:42:57.180Z,9.52
2022-11-23T18:45:25.154Z,11.30
2022-11-23T18:47:57.860Z,9.27
2022-11-23T18:50:27.298Z,6.38
2022-11-23T18:52:57.239Z,9.48
2022-11-23T18:55:26.176Z,8.57
2022-11-23T18:57:54.847Z,9.38
2022-11-23T19:00:24.168Z,12.75
2022-11-23T19:02:57.986Z,8.95
2022-11-23T19:05:35.720Z,7.38
2022-11-23T19:08:07.163Z,8.13
2022-11-23T19:10:39.580Z,7.55
2022-11-23T19:13:08.567Z,8.65
2022-11-23T19:15:37.269Z,9.20
2022-11-23T19:18:06.390Z,8.15
2022-11-23T19:20:34.187Z,11.27
2022-11-23T19:23:03.082Z,8.98
2022-11-23T19:25:34.475Z,7.93
2022-11-23T19:28:04.741Z,7.00
2022-11-23T19:30:33.546Z,9.43
2022-11-23T19:33:00.803Z,10.90
2022-11-23T19:35:32.090Z,17.10
2022-11-23T19:38:02.183Z,14.15
2022-11-23T19:40:30.180Z,8.15
2022-11-23T19:42:57.981Z,9.85
2022-11-23T19:45:25.789Z,8.98
2022-11-23T19:47:53.134Z,8.50
2022-11-23T19:50:21.535Z,7.60
2022-11-23T19:53:11.104Z,9.07
2022-11-23T19:55:39.313Z,7.28
2022-11-23T19:58:06.564Z,7.55
2022-11-23T20:00:40.004Z,6.95
2022-11-23T20:03:09.925Z,8.20
2022-11-23T20:05:40.156Z,7.80
2022-11-23T20:08:09.921Z,7.88
2022-11-23T20:10:39.179Z,5.95
2022-11-23T20:13:06.510Z,7.25
2022-11-23T20:15:35.026Z,8.50
2022-11-23T20:18:04.624Z,5.97
2022-11-23T20:20:32.560Z,7.03
2022-11-23T20:23:03.461Z,6.15
2022-11-23T20:25:36.664Z,6.05
2022-11-23T20:28:06.941Z,6.80
2022-11-23T20:30:37.490Z,6.72
2022-11-23T20:33:15.652Z,5.90
2022-11-23T20:35:45.231Z,6.13
2022-11-23T20:38:17.442Z,7.28
2022-11-23T20:40:45.744Z,5.43
2022-11-23T20:43:13.918Z,6.53
2022-11-23T20:45:44.314Z,5.45
2022-11-23T20:48:13.766Z,7.30
2022-11-23T20:50:42.414Z,7.88
2022-11-23T20:53:11.191Z,8.02
2022-11-23T20:55:40.585Z,8.25
2022-11-23T20:58:08.263Z,7.38
2022-11-23T21:00:37.757Z,7.55
2022-11-23T21:03:05.596Z,7.97
2022-11-23T21:05:35.750Z,5.97
2022-11-23T21:08:03.704Z,6.03
2022-11-23T21:10:51.320Z,5.32
2022-11-23T21:13:49.223Z,6.38
2022-11-23T21:16:19.572Z,8.27
2022-11-23T21:18:48.005Z,9.38
2022-11-23T21:21:15.590Z,7.93
2022-11-23T21:23:46.140Z,6.28
2022-11-23T21:26:18.115Z,8.73
2022-11-23T21:28:45.368Z,9.48
2022-11-23T21:31:16.188Z,7.57
2022-11-23T21:33:44.753Z,9.98
2022-11-23T21:36:14.092Z,8.10
2022-11-23T21:38:41.570Z,10.43
2022-11-23T21:41:18.137Z,8.07
2022-11-23T21:43:52.268Z,7.65
2022-11-23T21:46:21.611Z,9.40
2022-11-23T21:48:53.274Z,9.82
2022-11-23T21:51:27.049Z,8.48
2022-11-23T21:53:56.739Z,8.93
2022-11-23T21:56:29.243Z,14.93
2022-11-23T21:58:57.040Z,15.40
2022-11-23T22:01:29.469Z,11.05
2022-11-23T22:04:01.444Z,14.15
2022-11-23T22:06:29.677Z,9.90
2022-11-23T22:08:59.898Z,9.23
2022-11-23T22:11:31.015Z,8.15
2022-11-23T22:14:07.428Z,9.20
2022-11-23T22:16:41.718Z,10.23
2022-11-23T22:19:12.168Z,8.93
2022-11-23T22:21:41.206Z,8.93
2022-11-23T22:24:15.122Z,9.10
2022-11-23T22:26:43.733Z,9.65
2022-11-23T22:29:11.865Z,10.00
2022-11-23T22:31:39.973Z,9.00
2022-11-23T22:34:12.160Z,9.07
2022-11-23T22:36:40.826Z,9.27
2022-11-23T22:39:08.956Z,10.02
2022-11-23T22:41:37.959Z,12.10
2022-11-23T22:44:07.933Z,11.73
2022-11-23T22:46:41.635Z,10.38
2022-11-23T22:49:08.942Z,9.90
2022-11-23T22:51:38.163Z,10.48
2022-11-23T22:54:06.689Z,9.45
2022-11-23T22:56:47.865Z,9.02
2022-11-23T22:59:15.857Z,9.32
2022-11-23T23:01:44.116Z,9.70
2022-11-23T23:04:15.012Z,7.90
2022-11-23T23:06:43.489Z,9.45
2022-11-23T23:09:12.420Z,11.63
2022-11-23T23:11:41.064Z,13.85
2022-11-23T23:14:08.425Z,22.33
2022-11-23T23:16:36.170Z,16.58
2022-11-23T23:19:04.239Z,22.58
2022-11-23T23:21:31.992Z,21.48
2022-11-23T23:24:01.241Z,18.33
2022-11-23T23:26:29.684Z,17.10
2022-11-23T23:28:59.756Z,14.25
2022-11-23T23:31:31.644Z,15.30
2022-11-23T23:33:59.897Z,26.50
2022-11-23T23:36:29.052Z,29.08
2022-11-23T23:38:59.718Z,25.98
2022-11-23T23:41:28.819Z,16.00
2022-11-23T23:43:58.218Z,19.40
2022-11-23T23:46:26.152Z,28.23
2022-11-23T23:48:55.175Z,27.65
2022-11-23T23:51:24.273Z,15.93
2022-11-23T23:53:54.233Z,23.27
2022-11-23T23:56:26.370Z,24.48
2022-11-23T23:58:59.193Z,14.88
